createdAt,value
2017-01-14T00:00:48.895Z,3.41
2017-01-14T00:02:02.875Z,3.4
2017-01-14T00:03:16.344Z,3.4
2017-01-14T00:04:29.845Z,3.38
2017-01-14T00:05:43.402Z,3.38
2017-01-14T00:06:57.642Z,3.37
2017-01-14T00:08:11.814Z,3.38
2017-01-14T00:09:25.736Z,3.39
2017-01-14T00:10:39.833Z,3.38
2017-01-14T00:11:53.557Z,3.36
2017-01-14T00:13:07.083Z,3.38
2017-01-14T00:14:21.283Z,3.41
2017-01-14T00:15:34.791Z,3.43
2017-01-14T00:16:51.444Z,3.45
2017-01-14T00:18:04.975Z,3.5
2017-01-14T00:19:18.439Z,3.52
2017-01-14T00:20:32.183Z,3.54
2017-01-14T00:21:45.647Z,3.56
2017-01-14T00:22:59.184Z,3.59
2017-01-14T00:24:12.615Z,3.62
2017-01-14T00:25:26.156Z,3.62
2017-01-14T00:26:40.373Z,3.63
2017-01-14T00:27:53.900Z,3.63
2017-01-14T00:29:07.828Z,3.64
2017-01-14T00:30:21.581Z,3.62
2017-01-14T00:31:35.071Z,3.61
2017-01-14T00:32:49.155Z,3.6
2017-01-14T00:34:03.091Z,3.59
2017-01-14T00:35:16.613Z,3.58
2017-01-14T00:36:30.223Z,3.53
2017-01-14T00:37:43.848Z,3.5
2017-01-14T00:38:57.819Z,3.52
2017-01-14T00:40:11.297Z,3.53
2017-01-14T00:41:25.479Z,3.53
2017-01-14T00:42:39.258Z,3.54
2017-01-14T00:43:54.559Z,3.55
2017-01-14T00:45:08.647Z,3.55
2017-01-14T00:46:22.452Z,3.56
2017-01-14T00:47:35.994Z,3.57
2017-01-14T00:48:50.335Z,3.57
2017-01-14T00:50:03.899Z,3.56
2017-01-14T00:51:17.647Z,3.56
2017-01-14T00:52:31.145Z,3.57
2017-01-14T00:53:44.971Z,3.59
2017-01-14T00:54:58.829Z,3.59
2017-01-14T00:56:12.626Z,3.58
2017-01-14T00:57:26.408Z,3.56
2017-01-14T00:58:39.949Z,3.56
2017-01-14T00:59:54.308Z,3.57
2017-01-14T01:01:08.363Z,3.53
2017-01-14T01:02:21.870Z,3.54
2017-01-14T01:03:35.678Z,3.53
2017-01-14T01:04:49.203Z,3.52
2017-01-14T01:06:02.949Z,3.49
2017-01-14T01:07:16.511Z,3.49
2017-01-14T01:08:31.069Z,3.47
2017-01-14T01:09:44.873Z,3.46
2017-01-14T01:10:59.741Z,3.46
2017-01-14T01:12:13.391Z,3.48
2017-01-14T01:13:26.860Z,3.48
2017-01-14T01:14:40.393Z,3.47
2017-01-14T01:16:09.668Z,3.48
2017-01-14T01:17:23.333Z,3.49
2017-01-14T01:18:36.798Z,3.5
2017-01-14T01:19:50.387Z,3.55
2017-01-14T01:21:04.117Z,3.58
2017-01-14T01:22:17.986Z,3.59
2017-01-14T01:23:32.116Z,3.58
2017-01-14T01:24:45.695Z,3.58
2017-01-14T01:25:59.252Z,3.56
2017-01-14T01:27:12.973Z,3.54
2017-01-14T01:28:27.252Z,3.54
2017-01-14T01:29:40.842Z,3.54
2017-01-14T01:30:54.405Z,3.57
2017-01-14T01:32:09.377Z,3.56
2017-01-14T01:33:25.360Z,3.59
2017-01-14T01:34:39.312Z,3.63
2017-01-14T01:35:54.069Z,3.64
2017-01-14T01:37:07.819Z,3.65
2017-01-14T01:38:22.903Z,3.65
2017-01-14T01:39:36.485Z,3.64
2017-01-14T01:40:51.394Z,3.62
2017-01-14T01:42:05.103Z,3.62
2017-01-14T01:43:19.211Z,3.63
2017-01-14T01:44:32.785Z,3.65
2017-01-14T01:45:46.415Z,3.62
2017-01-14T01:47:00.509Z,3.63
2017-01-14T01:48:14.470Z,3.65
2017-01-14T01:49:27.924Z,3.67
2017-01-14T01:50:41.545Z,3.66
2017-01-14T01:51:54.985Z,3.68
2017-01-14T01:53:08.992Z,3.73
2017-01-14T01:54:22.572Z,3.8
2017-01-14T01:55:36.021Z,3.86
2017-01-14T01:56:49.571Z,3.91
2017-01-14T01:58:03.159Z,3.96
2017-01-14T01:59:17.001Z,3.97
2017-01-14T02:00:30.532Z,3.99
2017-01-14T02:01:44.971Z,4.02
2017-01-14T02:02:58.573Z,4.06
2017-01-14T02:04:13.362Z,4.07
2017-01-14T02:05:27.188Z,4.09
2017-01-14T02:06:40.915Z,4.14
2017-01-14T02:07:54.357Z,4.18
2017-01-14T02:09:08.006Z,4.24
2017-01-14T02:10:21.497Z,4.29
2017-01-14T02:11:35.225Z,4.35
2017-01-14T02:12:48.974Z,4.41
2017-01-14T02:14:04.184Z,4.49
2017-01-14T02:15:17.664Z,4.53
2017-01-14T02:16:31.239Z,4.56
2017-01-14T02:17:45.357Z,4.59
2017-01-14T02:18:59.047Z,4.63
2017-01-14T02:20:12.699Z,4.67
2017-01-14T02:21:26.215Z,4.72
2017-01-14T02:22:40.177Z,4.76
2017-01-14T02:23:54.086Z,4.83
2017-01-14T02:25:07.912Z,4.9
2017-01-14T02:26:21.563Z,4.97
2017-01-14T02:27:35.075Z,5.04
2017-01-14T02:28:48.786Z,5.09
2017-01-14T02:30:02.884Z,5.14
2017-01-14T02:31:16.330Z,5.15
2017-01-14T02:32:30.020Z,5.19
2017-01-14T02:33:43.629Z,5.21
2017-01-14T02:34:57.254Z,5.23
2017-01-14T02:36:11.168Z,5.25
2017-01-14T02:37:24.652Z,5.24
2017-01-14T02:38:38.490Z,5.26
2017-01-14T02:39:51.995Z,5.26
2017-01-14T02:41:05.706Z,5.27
2017-01-14T02:42:19.598Z,5.29
2017-01-14T02:43:33.241Z,5.28
2017-01-14T02:44:46.831Z,5.29
2017-01-14T02:46:00.418Z,5.3
2017-01-14T02:47:14.970Z,5.3
2017-01-14T02:48:29.040Z,5.32
2017-01-14T02:49:44.766Z,5.33
2017-01-14T02:50:59.883Z,5.34
2017-01-14T02:52:13.387Z,5.36
2017-01-14T02:53:27.168Z,5.38
2017-01-14T02:54:41.056Z,5.39
2017-01-14T02:55:54.567Z,5.4
2017-01-14T02:57:08.265Z,5.4
2017-01-14T02:58:22.218Z,5.4
2017-01-14T02:59:36.444Z,5.39
2017-01-14T03:00:50.359Z,5.39
2017-01-14T03:02:04.423Z,5.39
2017-01-14T03:03:17.946Z,5.39
2017-01-14T03:04:31.896Z,5.36
2017-01-14T03:05:45.985Z,5.35
2017-01-14T03:06:59.840Z,5.36
2017-01-14T03:08:13.356Z,5.38
2017-01-14T03:09:27.071Z,5.39
2017-01-14T03:10:40.523Z,5.41
2017-01-14T03:11:54.239Z,5.43
2017-01-14T03:13:08.537Z,5.47
2017-01-14T03:14:22.131Z,5.49
2017-01-14T03:15:36.330Z,5.53
2017-01-14T03:16:50.213Z,5.54
2017-01-14T03:18:05.386Z,5.55
2017-01-14T03:19:19.708Z,5.57
2017-01-14T03:20:33.235Z,5.6
2017-01-14T03:21:47.584Z,5.63
2017-01-14T03:23:03.345Z,5.66
2017-01-14T03:24:17.376Z,5.68
2017-01-14T03:25:31.137Z,5.69
2017-01-14T03:26:44.930Z,5.7
2017-01-14T03:27:58.669Z,5.71
2017-01-14T03:29:12.644Z,5.71
2017-01-14T03:30:26.170Z,5.72
2017-01-14T03:31:40.283Z,5.71
2017-01-14T03:32:53.903Z,5.71
2017-01-14T03:34:07.635Z,5.71
2017-01-14T03:35:21.261Z,5.72
2017-01-14T03:36:35.188Z,5.75
2017-01-14T03:37:49.400Z,5.74
2017-01-14T03:39:03.023Z,5.71
2017-01-14T03:40:22.752Z,5.71
2017-01-14T03:41:37.150Z,5.7
2017-01-14T03:42:50.693Z,5.71
2017-01-14T03:44:05.173Z,5.72
2017-01-14T03:45:19.392Z,5.71
2017-01-14T03:46:33.175Z,5.71
2017-01-14T03:47:46.765Z,5.73
2017-01-14T03:49:01.096Z,5.73
2017-01-14T03:50:14.898Z,5.73
2017-01-14T03:51:28.445Z,5.73
2017-01-14T03:52:42.796Z,5.76
2017-01-14T03:53:56.349Z,5.77
2017-01-14T03:55:10.063Z,5.79
2017-01-14T03:56:24.245Z,5.82
2017-01-14T03:57:37.856Z,5.85
2017-01-14T03:58:51.493Z,5.85
2017-01-14T04:00:05.519Z,5.87
2017-01-14T04:01:19.106Z,5.85
2017-01-14T04:02:32.964Z,5.87
2017-01-14T04:03:46.994Z,5.84
2017-01-14T04:05:00.638Z,5.85
2017-01-14T04:06:16.404Z,5.83
2017-01-14T04:07:30.409Z,5.84
2017-01-14T04:08:44.251Z,5.85
2017-01-14T04:09:57.756Z,5.83
2017-01-14T04:11:11.383Z,5.79
2017-01-14T04:12:24.949Z,5.75
2017-01-14T04:13:38.496Z,5.69
2017-01-14T04:14:52.326Z,5.67
2017-01-14T04:16:06.042Z,5.64
2017-01-14T04:17:19.527Z,5.61
2017-01-14T04:18:33.085Z,5.6
2017-01-14T04:19:46.622Z,5.58
2017-01-14T04:21:00.475Z,5.56
2017-01-14T04:22:14.028Z,5.56
2017-01-14T04:23:27.599Z,5.59
2017-01-14T04:24:41.135Z,5.62
2017-01-14T04:25:54.661Z,5.64
2017-01-14T04:27:08.993Z,5.66
2017-01-14T04:28:22.508Z,5.69
2017-01-14T04:29:36.015Z,5.72
2017-01-14T04:30:49.829Z,5.75
2017-01-14T04:32:03.422Z,5.76
2017-01-14T04:33:17.198Z,5.79
2017-01-14T04:34:31.577Z,5.78
2017-01-14T04:35:45.113Z,5.8
2017-01-14T04:36:58.898Z,5.8
2017-01-14T04:38:12.477Z,5.82
2017-01-14T04:39:26.824Z,5.82
2017-01-14T04:40:40.472Z,5.8
2017-01-14T04:41:54.021Z,5.78
2017-01-14T04:43:07.699Z,5.75
2017-01-14T04:44:21.175Z,5.77
2017-01-14T04:45:35.026Z,5.77
2017-01-14T04:46:48.610Z,5.77
2017-01-14T04:48:02.389Z,5.76
2017-01-14T04:49:16.033Z,5.78
2017-01-14T04:50:29.661Z,5.77
2017-01-14T04:51:43.456Z,5.75
2017-01-14T04:52:57.165Z,5.72
2017-01-14T04:54:10.723Z,5.68
2017-01-14T04:55:24.212Z,5.67
2017-01-14T04:56:37.730Z,5.66
2017-01-14T04:57:51.523Z,5.69
2017-01-14T04:59:05.227Z,5.71
2017-01-14T05:00:18.804Z,5.72
2017-01-14T05:01:32.376Z,5.72
2017-01-14T05:02:46.048Z,5.72
2017-01-14T05:04:00.440Z,5.75
2017-01-14T05:05:13.884Z,5.76
2017-01-14T05:06:27.820Z,5.78
2017-01-14T05:07:41.395Z,5.8
2017-01-14T05:08:54.909Z,5.79
2017-01-14T05:10:08.849Z,5.79
2017-01-14T05:11:22.393Z,5.79
2017-01-14T05:12:35.987Z,5.78
2017-01-14T05:13:49.633Z,5.72
2017-01-14T05:15:03.105Z,5.71
2017-01-14T05:16:17.409Z,5.69
2017-01-14T05:17:31.040Z,5.67
2017-01-14T05:18:44.757Z,5.65
2017-01-14T05:19:58.262Z,5.6
2017-01-14T05:21:12.359Z,5.57
2017-01-14T05:22:29.083Z,5.55
2017-01-14T05:23:42.775Z,5.53
2017-01-14T05:24:56.297Z,5.54
2017-01-14T05:26:09.921Z,5.54
2017-01-14T05:27:23.553Z,5.55
2017-01-14T05:28:37.464Z,5.59
2017-01-14T05:29:52.364Z,5.6
2017-01-14T05:31:05.969Z,5.62
2017-01-14T05:32:19.456Z,5.65
2017-01-14T05:33:32.964Z,5.7
2017-01-14T05:34:47.258Z,5.7
2017-01-14T05:36:00.774Z,5.73
2017-01-14T05:37:14.366Z,5.77
2017-01-14T05:38:27.894Z,5.78
2017-01-14T05:39:41.584Z,5.8
2017-01-14T05:40:55.539Z,5.83
2017-01-14T05:42:09.056Z,5.84
2017-01-14T05:43:23.030Z,5.87
2017-01-14T05:44:36.546Z,5.89
2017-01-14T05:45:50.225Z,5.91
2017-01-14T05:47:04.081Z,5.89
2017-01-14T05:48:17.603Z,5.88
2017-01-14T05:49:31.199Z,5.89
2017-01-14T05:50:44.854Z,5.91
2017-01-14T05:51:58.585Z,5.91
2017-01-14T05:53:12.912Z,5.92
2017-01-14T05:54:26.815Z,5.94
2017-01-14T05:55:41.973Z,5.98
2017-01-14T05:56:55.956Z,6.02
2017-01-14T05:58:11.760Z,6.06
2017-01-14T05:59:26.280Z,6.08
2017-01-14T06:00:40.997Z,6.14
2017-01-14T06:01:55.389Z,6.12
2017-01-14T06:03:08.954Z,6.06
2017-01-14T06:04:23.395Z,6.02
2017-01-14T06:05:37.140Z,6.02
2017-01-14T06:06:50.847Z,6.01
2017-01-14T06:08:04.621Z,5.98
2017-01-14T06:09:18.564Z,5.96
2017-01-14T06:10:32.429Z,5.95
2017-01-14T06:11:46.361Z,5.96
2017-01-14T06:12:59.896Z,5.97
2017-01-14T06:14:13.407Z,5.98
2017-01-14T06:15:26.985Z,6.01
2017-01-14T06:16:40.750Z,6.01
2017-01-14T06:17:54.588Z,6
2017-01-14T06:19:08.423Z,5.99
2017-01-14T06:20:21.934Z,5.97
2017-01-14T06:21:36.236Z,5.96
2017-01-14T06:22:49.890Z,5.95
2017-01-14T06:24:03.776Z,5.95
2017-01-14T06:25:17.453Z,5.95
2017-01-14T06:26:31.023Z,5.98
2017-01-14T06:27:44.743Z,5.99
2017-01-14T06:28:58.246Z,6
2017-01-14T06:30:12.164Z,6.01
2017-01-14T06:31:27.007Z,6
2017-01-14T06:32:40.690Z,5.94
2017-01-14T06:33:54.640Z,5.9
2017-01-14T06:35:08.209Z,5.88
2017-01-14T06:36:22.137Z,5.86
2017-01-14T06:37:35.693Z,5.85
2017-01-14T06:38:51.866Z,5.87
2017-01-14T06:40:06.105Z,5.87
2017-01-14T06:41:19.911Z,5.88
2017-01-14T06:42:33.892Z,5.89
2017-01-14T06:43:47.980Z,5.9
2017-01-14T06:45:01.726Z,5.9
2017-01-14T06:46:16.106Z,5.92
2017-01-14T06:47:30.105Z,5.94
2017-01-14T06:48:44.554Z,5.95
2017-01-14T06:49:58.090Z,5.96
2017-01-14T06:51:11.730Z,6
2017-01-14T06:52:25.690Z,6.04
2017-01-14T06:53:39.363Z,6.06
2017-01-14T06:54:53.201Z,6.05
2017-01-14T06:56:06.724Z,6.06
2017-01-14T06:57:20.302Z,6.07
2017-01-14T06:58:33.834Z,6.08
2017-01-14T06:59:47.491Z,6.1
2017-01-14T07:01:01.333Z,6.15
2017-01-14T07:02:14.901Z,6.16
2017-01-14T07:03:28.677Z,6.12
2017-01-14T07:04:42.270Z,6.1
2017-01-14T07:05:56.195Z,6.05
2017-01-14T07:07:10.038Z,6.04
2017-01-14T07:08:23.657Z,6
2017-01-14T07:09:37.319Z,6
2017-01-14T07:10:51.152Z,6.02
2017-01-14T07:12:04.721Z,6.04
2017-01-14T07:13:18.970Z,6
2017-01-14T07:14:32.512Z,5.95
2017-01-14T07:15:46.268Z,5.91
2017-01-14T07:16:59.804Z,5.89
2017-01-14T07:18:13.355Z,5.91
2017-01-14T07:19:27.201Z,5.97
2017-01-14T07:20:42.038Z,6.09
2017-01-14T07:21:55.570Z,6.26
2017-01-14T07:23:09.102Z,6.33
2017-01-14T07:24:23.102Z,6.37
2017-01-14T07:25:38.224Z,6.39
2017-01-14T07:26:52.057Z,6.38
2017-01-14T07:28:05.524Z,6.37
2017-01-14T07:29:19.020Z,6.36
2017-01-14T07:30:32.672Z,6.35
2017-01-14T07:31:46.662Z,6.34
2017-01-14T07:33:00.334Z,6.32
2017-01-14T07:34:13.884Z,6.31
2017-01-14T07:35:27.571Z,6.32
2017-01-14T07:36:41.211Z,6.33
2017-01-14T07:37:55.295Z,6.34
2017-01-14T07:39:09.259Z,6.33
2017-01-14T07:40:22.841Z,6.32
2017-01-14T07:41:36.512Z,6.28
2017-01-14T07:42:50.040Z,6.24
2017-01-14T07:44:03.909Z,6.23
2017-01-14T07:45:17.516Z,6.22
2017-01-14T07:46:31.096Z,6.22
2017-01-14T07:47:44.986Z,6.18
2017-01-14T07:48:58.541Z,6.15
2017-01-14T07:50:13.163Z,6.11
2017-01-14T07:51:26.774Z,6.05
2017-01-14T07:52:41.329Z,6
2017-01-14T07:53:55.084Z,5.97
2017-01-14T07:55:10.905Z,5.94
2017-01-14T07:56:25.325Z,5.92
2017-01-14T07:57:38.959Z,5.91
2017-01-14T07:58:52.533Z,5.89
2017-01-14T08:00:05.984Z,5.88
2017-01-14T08:01:19.682Z,5.87
2017-01-14T08:02:35.185Z,5.82
2017-01-14T08:03:48.845Z,5.75
2017-01-14T08:05:03.257Z,5.64
2017-01-14T08:06:17.845Z,5.58
2017-01-14T08:07:31.548Z,5.54
2017-01-14T08:08:45.612Z,5.53
2017-01-14T08:09:59.157Z,5.55
2017-01-14T08:11:12.656Z,5.57
2017-01-14T08:12:26.259Z,5.59
2017-01-14T08:13:40.121Z,5.64
2017-01-14T08:14:54.225Z,5.68
2017-01-14T08:16:08.343Z,5.72
2017-01-14T08:17:21.872Z,5.75
2017-01-14T08:18:37.790Z,5.77
2017-01-14T08:19:52.766Z,5.82
2017-01-14T08:21:06.566Z,5.86
2017-01-14T08:22:20.261Z,5.9
2017-01-14T08:23:34.151Z,5.93
2017-01-14T08:24:47.745Z,5.93
2017-01-14T08:26:01.375Z,5.94
2017-01-14T08:27:16.032Z,5.91
2017-01-14T08:28:29.993Z,5.92
2017-01-14T08:29:44.432Z,5.93
2017-01-14T08:30:58.936Z,5.94
2017-01-14T08:32:12.486Z,5.98
2017-01-14T08:33:26.533Z,6
2017-01-14T08:34:40.763Z,6.02
2017-01-14T08:35:54.470Z,6.04
2017-01-14T08:37:09.012Z,6.04
2017-01-14T08:38:22.883Z,6.03
2017-01-14T08:39:38.112Z,6.05
2017-01-14T08:40:51.786Z,6.08
2017-01-14T08:42:05.923Z,6.1
2017-01-14T08:43:19.613Z,6.13
2017-01-14T08:44:34.188Z,6.17
2017-01-14T08:45:48.654Z,6.17
2017-01-14T08:47:02.203Z,6.18
2017-01-14T08:48:15.839Z,6.18
2017-01-14T08:49:29.538Z,6.2
2017-01-14T08:50:43.787Z,6.2
2017-01-14T08:51:59.113Z,6.22
2017-01-14T08:53:13.210Z,6.25
2017-01-14T08:54:29.055Z,6.25
2017-01-14T08:55:43.802Z,6.26
2017-01-14T08:56:57.806Z,6.23
2017-01-14T08:58:12.096Z,6.16
2017-01-14T08:59:28.344Z,6.14
2017-01-14T09:00:42.061Z,6.13
2017-01-14T09:01:55.765Z,6.12
2017-01-14T09:03:09.463Z,6.11
2017-01-14T09:04:23.292Z,6.09
2017-01-14T09:05:37.543Z,6.12
2017-01-14T09:06:52.133Z,6.15
2017-01-14T09:08:05.876Z,6.17
2017-01-14T09:09:19.476Z,6.17
2017-01-14T09:10:33.795Z,6.17
2017-01-14T09:11:59.631Z,6.17
2017-01-14T09:13:13.390Z,6.16
2017-01-14T09:14:28.363Z,6.17
2017-01-14T09:15:42.543Z,6.18
2017-01-14T09:17:06.090Z,6.23
2017-01-14T09:18:20.902Z,6.26
2017-01-14T09:19:34.497Z,6.3
2017-01-14T09:20:48.156Z,6.33
2017-01-14T09:22:02.107Z,6.35
2017-01-14T09:23:16.214Z,6.39
2017-01-14T09:24:31.775Z,6.41
2017-01-14T09:25:48.383Z,6.42
2017-01-14T09:27:03.725Z,6.42
2017-01-14T09:28:19.381Z,6.42
2017-01-14T09:29:32.953Z,6.42
2017-01-14T09:30:46.506Z,6.42
2017-01-14T09:32:00.389Z,6.42
2017-01-14T09:33:24.405Z,6.44
2017-01-14T09:34:39.328Z,6.46
2017-01-14T09:35:52.970Z,6.43
2017-01-14T09:37:07.217Z,6.42
2017-01-14T09:38:23.777Z,6.4
2017-01-14T09:39:37.518Z,6.39
2017-01-14T09:40:51.455Z,6.35
2017-01-14T09:42:05.987Z,6.33
2017-01-14T09:43:20.272Z,6.31
2017-01-14T09:44:34.069Z,6.27
2017-01-14T09:45:48.411Z,6.22
2017-01-14T09:47:02.345Z,6.21
2017-01-14T09:48:26.939Z,6.21
2017-01-14T09:49:40.925Z,6.21
2017-01-14T09:50:56.450Z,6.21
2017-01-14T09:52:10.806Z,6.23
2017-01-14T09:53:26.190Z,6.27
2017-01-14T09:55:00.280Z,6.31
2017-01-14T09:56:14.481Z,6.34
2017-01-14T09:57:28.029Z,6.41
2017-01-14T09:58:41.917Z,6.47
2017-01-14T09:59:55.657Z,6.51
2017-01-14T10:01:09.242Z,6.52
2017-01-14T10:02:22.735Z,6.54
2017-01-14T10:03:36.446Z,6.56
2017-01-14T10:04:53.334Z,6.57
2017-01-14T10:06:08.335Z,6.6
2017-01-14T10:07:22.179Z,6.65
2017-01-14T10:08:35.718Z,6.73
2017-01-14T10:09:49.318Z,6.79
2017-01-14T10:11:03.879Z,6.84
2017-01-14T10:12:17.992Z,6.87
2017-01-14T10:13:31.630Z,6.91
2017-01-14T10:14:45.180Z,6.95
2017-01-14T10:16:00.543Z,6.93
2017-01-14T10:17:15.137Z,6.92
2017-01-14T10:18:29.117Z,6.91
2017-01-14T10:19:42.664Z,6.88
2017-01-14T10:21:06.185Z,6.88
2017-01-14T10:22:19.730Z,6.85
2017-01-14T10:23:34.027Z,6.84
2017-01-14T10:24:47.653Z,6.82
2017-01-14T10:26:01.261Z,6.83
2017-01-14T10:27:15.014Z,6.83
2017-01-14T10:28:28.939Z,6.84
2017-01-14T10:29:45.071Z,6.82
2017-01-14T10:30:59.246Z,6.79
2017-01-14T10:32:12.972Z,6.79
2017-01-14T10:34:03.653Z,6.78
2017-01-14T10:35:17.672Z,6.77
2017-01-14T10:36:31.447Z,6.75
2017-01-14T10:37:45.432Z,6.76
2017-01-14T10:38:59.150Z,6.74
2017-01-14T10:40:12.761Z,6.75
2017-01-14T10:41:27.272Z,6.75
2017-01-14T10:42:50.777Z,6.79
2017-01-14T10:44:04.341Z,6.77
2017-01-14T10:45:18.359Z,6.76
2017-01-14T10:46:31.972Z,6.79
2017-01-14T10:47:46.004Z,6.79
2017-01-14T10:48:59.628Z,6.8
2017-01-14T10:50:13.228Z,6.81
2017-01-14T10:51:27.891Z,6.82
2017-01-14T10:52:54.687Z,6.81
2017-01-14T10:54:08.788Z,6.82
2017-01-14T10:55:24.896Z,6.79
2017-01-14T10:56:44.316Z,6.78
2017-01-14T10:58:02.329Z,6.76
2017-01-14T10:59:20.444Z,6.79
2017-01-14T11:00:40.220Z,6.83
2017-01-14T11:02:00.127Z,6.85
2017-01-14T11:03:30.215Z,6.87
2017-01-14T11:04:46.480Z,6.85
2017-01-14T11:06:05.479Z,6.85
2017-01-14T11:07:25.432Z,6.83
2017-01-14T11:08:43.491Z,6.83
2017-01-14T11:10:01.906Z,6.83
2017-01-14T11:11:21.490Z,6.79
2017-01-14T11:12:35.215Z,6.71
2017-01-14T11:13:49.406Z,6.65
2017-01-14T11:15:03.024Z,6.59
2017-01-14T11:16:16.489Z,6.54
2017-01-14T11:17:30.284Z,6.51
2017-01-14T11:18:43.738Z,6.46
2017-01-14T11:19:57.398Z,6.46
2017-01-14T11:21:10.843Z,6.46
2017-01-14T11:22:24.800Z,6.43
2017-01-14T11:23:38.682Z,6.38
2017-01-14T11:24:52.881Z,6.29
2017-01-14T11:26:06.348Z,6.25
2017-01-14T11:27:20.194Z,6.22
2017-01-14T11:28:33.747Z,6.23
2017-01-14T11:29:47.665Z,6.24
2017-01-14T11:31:01.223Z,6.23
2017-01-14T11:32:14.757Z,6.21
2017-01-14T11:33:28.383Z,6.19
2017-01-14T11:34:41.852Z,6.19
2017-01-14T11:35:55.806Z,6.2
2017-01-14T11:37:09.353Z,6.2
2017-01-14T11:38:22.860Z,6.19
2017-01-14T11:39:36.307Z,6.15
2017-01-14T11:40:51.041Z,6.14
2017-01-14T11:42:04.813Z,6.14
2017-01-14T11:43:24.673Z,6.14
2017-01-14T11:44:38.166Z,6.15
2017-01-14T11:45:51.793Z,6.18
2017-01-14T11:47:05.270Z,6.22
2017-01-14T11:48:21.293Z,6.27
2017-01-14T11:49:34.801Z,6.31
2017-01-14T11:50:48.476Z,6.35
2017-01-14T11:52:02.015Z,6.38
2017-01-14T11:53:15.608Z,6.42
2017-01-14T11:54:29.509Z,6.46
2017-01-14T11:55:43.122Z,6.49
2017-01-14T11:56:56.815Z,6.51
2017-01-14T11:58:10.278Z,6.5
2017-01-14T11:59:23.738Z,6.46
2017-01-14T12:00:37.673Z,6.47
2017-01-14T12:01:51.365Z,6.46
2017-01-14T12:03:04.904Z,6.47
2017-01-14T12:04:18.362Z,6.51
2017-01-14T12:05:31.841Z,6.56
2017-01-14T12:06:46.956Z,6.63
2017-01-14T12:08:00.600Z,6.69
2017-01-14T12:09:14.078Z,6.7
2017-01-14T12:10:27.619Z,6.67
2017-01-14T12:11:41.090Z,6.61
2017-01-14T12:12:54.978Z,6.56
2017-01-14T12:14:08.479Z,6.52
2017-01-14T12:15:22.214Z,6.54
2017-01-14T12:16:41.984Z,6.56
2017-01-14T12:17:57.549Z,6.6
2017-01-14T12:19:11.435Z,6.57
2017-01-14T12:20:24.923Z,6.52
2017-01-14T12:21:38.505Z,6.49
2017-01-14T12:23:11.925Z,6.5
2017-01-14T12:24:25.678Z,6.55
2017-01-14T12:25:39.645Z,6.52
2017-01-14T12:26:53.148Z,6.52
2017-01-14T12:28:06.594Z,6.48
2017-01-14T12:29:20.132Z,6.44
2017-01-14T12:30:34.325Z,6.39
2017-01-14T12:31:47.946Z,6.39
2017-01-14T12:33:01.492Z,6.45
2017-01-14T12:34:15.168Z,6.49
2017-01-14T12:35:29.050Z,6.56
2017-01-14T12:36:42.938Z,6.64
2017-01-14T12:37:56.467Z,6.69
2017-01-14T12:39:10.031Z,6.76
2017-01-14T12:40:24.019Z,6.82
2017-01-14T12:41:37.534Z,6.85
2017-01-14T12:42:51.330Z,6.87
2017-01-14T12:44:04.794Z,6.82
2017-01-14T12:45:18.777Z,6.74
2017-01-14T12:46:32.457Z,6.72
2017-01-14T12:47:45.922Z,6.76
2017-01-14T12:48:59.674Z,6.8
2017-01-14T12:50:13.453Z,6.83
2017-01-14T12:51:27.832Z,6.87
2017-01-14T12:52:41.626Z,6.91
2017-01-14T12:53:55.254Z,6.95
2017-01-14T12:55:09.033Z,6.98
2017-01-14T12:56:23.793Z,7
2017-01-14T12:57:37.402Z,7.01
2017-01-14T12:58:50.908Z,7.02
2017-01-14T13:00:05.264Z,7.05
2017-01-14T13:01:29.046Z,7.07
2017-01-14T13:02:42.586Z,7.09
2017-01-14T13:03:56.186Z,7.09
2017-01-14T13:05:12.002Z,7.03
2017-01-14T13:06:26.814Z,7
2017-01-14T13:07:40.717Z,6.99
2017-01-14T13:08:54.180Z,6.99
2017-01-14T13:10:07.791Z,6.99
2017-01-14T13:11:21.847Z,7
2017-01-14T13:12:37.246Z,7.01
2017-01-14T13:13:51.256Z,7.01
2017-01-14T13:15:05.237Z,7.01
2017-01-14T13:16:18.797Z,7
2017-01-14T13:17:32.502Z,7
2017-01-14T13:18:50.282Z,6.99
2017-01-14T13:20:04.408Z,6.99
2017-01-14T13:21:20.518Z,6.93
2017-01-14T13:22:48.800Z,6.71
2017-01-14T13:24:02.359Z,6.55
2017-01-14T13:25:16.467Z,6.46
2017-01-14T13:26:30.428Z,6.41
2017-01-14T13:27:54.074Z,6.34
2017-01-14T13:29:07.638Z,6.33
2017-01-14T13:30:21.365Z,6.34
2017-01-14T13:31:35.722Z,6.37
2017-01-14T13:32:50.401Z,6.42
2017-01-14T13:34:05.131Z,6.45
2017-01-14T13:35:21.129Z,6.47
2017-01-14T13:36:34.594Z,6.49
2017-01-14T13:37:48.561Z,6.52
2017-01-14T13:39:03.482Z,6.54
2017-01-14T13:40:19.021Z,6.52
2017-01-14T13:41:33.957Z,6.52
2017-01-14T13:42:47.400Z,6.52
2017-01-14T13:44:01.199Z,6.55
2017-01-14T13:45:15.666Z,6.56
2017-01-14T13:46:29.166Z,6.57
2017-01-14T13:47:42.861Z,6.64
2017-01-14T13:48:56.507Z,6.69
2017-01-14T13:50:10.875Z,6.75
2017-01-14T13:51:25.486Z,6.8
2017-01-14T13:52:40.892Z,6.81
2017-01-14T13:53:54.865Z,6.79
2017-01-14T13:55:08.703Z,6.74
2017-01-14T13:56:23.931Z,6.73
2017-01-14T13:57:37.979Z,6.73
2017-01-14T13:58:52.351Z,6.72
2017-01-14T14:00:06.900Z,6.72
2017-01-14T14:01:20.519Z,6.72
2017-01-14T14:02:34.528Z,6.74
2017-01-14T14:03:51.887Z,6.78
2017-01-14T14:05:05.688Z,6.83
2017-01-14T14:06:19.247Z,6.86
2017-01-14T14:07:32.922Z,6.83
2017-01-14T14:08:46.909Z,6.77
2017-01-14T14:10:00.373Z,6.75
2017-01-14T14:11:13.971Z,6.73
2017-01-14T14:12:27.592Z,6.72
2017-01-14T14:13:41.323Z,6.72
2017-01-14T14:14:55.705Z,6.74
2017-01-14T14:16:09.359Z,6.76
2017-01-14T14:17:22.801Z,6.77
2017-01-14T14:18:48.983Z,6.77
2017-01-14T14:20:04.019Z,6.8
2017-01-14T14:21:17.460Z,6.8
2017-01-14T14:22:33.128Z,6.8
2017-01-14T14:23:46.713Z,6.78
2017-01-14T14:25:00.575Z,6.76
2017-01-14T14:26:14.384Z,6.78
2017-01-14T14:27:27.842Z,6.8
2017-01-14T14:28:41.293Z,6.81
2017-01-14T14:29:54.746Z,6.82
2017-01-14T14:31:08.334Z,6.81
2017-01-14T14:32:22.897Z,6.82
2017-01-14T14:34:08.802Z,6.82
2017-01-14T14:35:22.391Z,6.85
2017-01-14T14:36:35.886Z,6.85
2017-01-14T14:37:49.623Z,6.83
2017-01-14T14:39:03.109Z,6.82
2017-01-14T14:40:16.750Z,6.82
2017-01-14T14:41:30.714Z,6.83
2017-01-14T14:42:44.181Z,6.85
2017-01-14T14:43:57.948Z,6.87
2017-01-14T14:45:11.474Z,6.9
2017-01-14T14:46:25.539Z,6.9
2017-01-14T14:47:39.003Z,6.91
2017-01-14T14:48:52.488Z,6.92
2017-01-14T14:50:06.230Z,6.9
2017-01-14T14:51:19.783Z,6.89
2017-01-14T14:52:33.329Z,6.85
2017-01-14T14:53:46.852Z,6.81
2017-01-14T14:55:00.393Z,6.78
2017-01-14T14:56:14.153Z,6.79
2017-01-14T14:57:28.929Z,6.75
2017-01-14T14:58:42.456Z,6.75
2017-01-14T15:00:08.645Z,6.73
2017-01-14T15:01:22.452Z,6.7
2017-01-14T15:02:36.693Z,6.66
2017-01-14T15:03:50.834Z,6.63
2017-01-14T15:05:05.387Z,6.59
2017-01-14T15:06:44.559Z,6.57
2017-01-14T15:07:58.336Z,6.49
2017-01-14T15:09:11.839Z,6.44
2017-01-14T15:10:25.337Z,6.41
2017-01-14T15:11:38.873Z,6.37
2017-01-14T15:12:54.787Z,6.34
2017-01-14T15:14:08.540Z,6.33
2017-01-14T15:15:21.995Z,6.31
2017-01-14T15:16:35.549Z,6.29
2017-01-14T15:17:49.141Z,6.29
2017-01-14T15:19:02.573Z,6.28
2017-01-14T15:20:16.325Z,6.27
2017-01-14T15:21:29.859Z,6.26
2017-01-14T15:22:43.601Z,6.25
2017-01-14T15:23:59.057Z,6.22
2017-01-14T15:25:15.918Z,6.16
2017-01-14T15:26:36.324Z,6.13
2017-01-14T15:27:52.947Z,6.07
2017-01-14T15:29:06.914Z,6.03
2017-01-14T15:30:22.229Z,6.01
2017-01-14T15:31:36.810Z,6.01
2017-01-14T15:32:53.073Z,6
2017-01-14T15:34:07.365Z,5.99
2017-01-14T15:35:21.804Z,5.97
2017-01-14T15:36:35.736Z,5.96
2017-01-14T15:37:49.980Z,5.92
2017-01-14T15:39:07.659Z,5.91
2017-01-14T15:40:24.082Z,5.9
2017-01-14T15:41:39.162Z,5.88
2017-01-14T15:42:54.220Z,5.89
2017-01-14T15:44:09.017Z,5.89
2017-01-14T15:45:24.709Z,5.85
2017-01-14T15:46:39.286Z,5.82
2017-01-14T15:47:52.973Z,5.82
2017-01-14T15:49:06.485Z,5.81
2017-01-14T15:50:19.966Z,5.79
2017-01-14T15:51:33.704Z,5.79
2017-01-14T15:52:47.240Z,5.76
2017-01-14T15:54:10.674Z,5.73
2017-01-14T15:55:24.140Z,5.75
2017-01-14T15:56:37.595Z,5.75
2017-01-14T15:57:51.327Z,5.77
2017-01-14T15:59:04.820Z,5.78
2017-01-14T16:00:18.295Z,5.78
2017-01-14T16:01:31.718Z,5.77
2017-01-14T16:02:45.163Z,5.78
2017-01-14T16:04:00.278Z,5.76
2017-01-14T16:05:17.864Z,5.75
2017-01-14T16:06:32.442Z,5.74
2017-01-14T16:07:47.811Z,5.75
2017-01-14T16:09:04.179Z,5.75
2017-01-14T16:10:20.464Z,5.76
2017-01-14T16:11:35.697Z,5.74
2017-01-14T16:12:51.746Z,5.75
2017-01-14T16:14:06.922Z,5.75
2017-01-14T16:15:25.623Z,5.74
2017-01-14T16:16:40.731Z,5.75
2017-01-14T16:17:56.723Z,5.76
2017-01-14T16:19:13.804Z,5.78
2017-01-14T16:20:28.418Z,5.78
2017-01-14T16:21:44.226Z,5.79
2017-01-14T16:22:59.827Z,5.79
2017-01-14T16:24:14.400Z,5.79
2017-01-14T16:25:30.729Z,5.8
2017-01-14T16:26:45.979Z,5.81
2017-01-14T16:28:01.851Z,5.83
2017-01-14T16:29:26.477Z,5.83
2017-01-14T16:30:42.487Z,5.81
2017-01-14T16:31:57.876Z,5.76
2017-01-14T16:33:13.231Z,5.73
2017-01-14T16:34:31.181Z,5.67
2017-01-14T16:35:47.963Z,5.61